createdAt,value
2017-01-02T00:00:13.767Z,0
2017-01-02T00:01:13.684Z,0
2017-01-02T00:02:13.635Z,0
2017-01-02T00:03:13.600Z,0
2017-01-02T00:04:13.162Z,0
2017-01-02T00:05:15.534Z,0
2017-01-02T00:06:13.465Z,0
2017-01-02T00:07:13.423Z,0
2017-01-02T00:08:13.372Z,0
2017-01-02T00:09:13.330Z,0
2017-01-02T00:10:13.301Z,0
2017-01-02T00:11:12.867Z,0
2017-01-02T00:12:13.212Z,0
2017-01-02T00:13:12.775Z,0
2017-01-02T00:14:11.959Z,0
2017-01-02T00:15:13.083Z,0
2017-01-02T00:16:13.028Z,0
2017-01-02T00:17:12.624Z,0
2017-01-02T00:18:12.943Z,0
2017-01-02T00:19:12.897Z,0
2017-01-02T00:20:12.857Z,0
2017-01-02T00:21:12.813Z,0
2017-01-02T00:22:12.770Z,0
2017-01-02T00:23:12.342Z,0
2017-01-02T00:24:12.681Z,0
2017-01-02T00:25:12.261Z,0
2017-01-02T00:26:12.602Z,0
2017-01-02T00:27:11.791Z,0
2017-01-02T00:28:12.125Z,0
2017-01-02T00:29:12.471Z,0
2017-01-02T00:30:12.424Z,0
2017-01-02T00:31:12.386Z,0
2017-01-02T00:32:12.337Z,0
2017-01-02T00:33:14.070Z,0
2017-01-02T00:34:11.869Z,0
2017-01-02T00:35:11.448Z,0
2017-01-02T00:36:12.167Z,0
2017-01-02T00:37:12.139Z,0
2017-01-02T00:38:12.080Z,0
2017-01-02T00:39:12.042Z,0
2017-01-02T00:40:11.996Z,0
2017-01-02T00:41:11.564Z,0
2017-01-02T00:42:11.793Z,0
2017-01-02T00:43:11.869Z,0
2017-01-02T00:44:11.827Z,0
2017-01-02T00:45:10.633Z,0
2017-01-02T00:46:11.740Z,0
2017-01-02T00:47:13.007Z,0
2017-01-02T00:48:11.648Z,0
2017-01-02T00:49:11.608Z,0
2017-01-02T00:50:11.567Z,0
2017-01-02T00:51:11.522Z,0
2017-01-02T00:52:11.473Z,0
2017-01-02T00:53:11.427Z,0
2017-01-02T00:54:11.384Z,0
2017-01-02T00:55:11.357Z,0
2017-01-02T00:56:10.523Z,0
2017-01-02T00:57:12.489Z,0
2017-01-02T00:58:11.214Z,0
2017-01-02T00:59:11.201Z,0
2017-01-02T01:00:10.750Z,0
2017-01-02T01:01:11.080Z,0
2017-01-02T01:02:12.787Z,0
2017-01-02T01:03:10.998Z,0
2017-01-02T01:04:10.957Z,0
2017-01-02T01:05:10.139Z,0
2017-01-02T01:06:10.483Z,0
2017-01-02T01:07:10.824Z,0
2017-01-02T01:08:10.392Z,0
2017-01-02T01:09:10.741Z,0
2017-01-02T01:10:10.332Z,0
2017-01-02T01:11:10.273Z,0
2017-01-02T01:12:10.611Z,0
2017-01-02T01:13:10.176Z,0
2017-01-02T01:14:10.523Z,0
2017-01-02T01:15:10.109Z,0
2017-01-02T01:16:10.046Z,0
2017-01-02T01:17:10.019Z,0
2017-01-02T01:18:09.962Z,0
2017-01-02T01:19:09.534Z,0
2017-01-02T01:20:09.488Z,0
2017-01-02T01:21:09.450Z,0
2017-01-02T01:22:09.794Z,0
2017-01-02T01:23:09.741Z,0
2017-01-02T01:24:09.324Z,0
2017-01-02T01:25:09.668Z,0
2017-01-02T01:26:09.625Z,0
2017-01-02T01:27:09.578Z,0
2017-01-02T01:28:09.529Z,0
2017-01-02T01:29:09.489Z,0
2017-01-02T01:30:09.464Z,0
2017-01-02T01:31:09.019Z,0
2017-01-02T01:32:09.387Z,0
2017-01-02T01:33:09.316Z,0
2017-01-02T01:34:08.891Z,0
2017-01-02T01:35:09.619Z,0
2017-01-02T01:36:08.794Z,0
2017-01-02T01:37:09.529Z,0
2017-01-02T01:38:09.481Z,0
2017-01-02T01:39:09.061Z,0
2017-01-02T01:40:09.013Z,0
2017-01-02T01:41:08.584Z,0
2017-01-02T01:42:09.313Z,0
2017-01-02T01:43:08.883Z,0
2017-01-02T01:44:09.231Z,0
2017-01-02T01:45:11.414Z,0
2017-01-02T01:46:07.983Z,0
2017-01-02T01:47:08.738Z,0
2017-01-02T01:48:08.289Z,0
2017-01-02T01:49:08.623Z,0
2017-01-02T01:50:08.580Z,0
2017-01-02T01:51:07.769Z,0
2017-01-02T01:52:08.496Z,0
2017-01-02T01:53:08.830Z,0
2017-01-02T01:54:08.796Z,0
2017-01-02T01:55:08.366Z,0
2017-01-02T01:56:08.705Z,0
2017-01-02T01:57:08.276Z,0
2017-01-02T01:58:11.019Z,0
2017-01-02T01:59:08.579Z,0
2017-01-02T02:00:08.536Z,0
2017-01-02T02:01:08.493Z,0
2017-01-02T02:02:08.089Z,0
2017-01-02T02:03:08.022Z,0
2017-01-02T02:04:07.979Z,0
2017-01-02T02:05:07.958Z,0
2017-01-02T02:06:10.610Z,0
2017-01-02T02:07:08.247Z,0
2017-01-02T02:08:08.187Z,0
2017-01-02T02:09:08.146Z,0
2017-01-02T02:10:08.103Z,0
2017-01-02T02:11:06.897Z,0
2017-01-02T02:12:07.630Z,0
2017-01-02T02:13:07.201Z,0
2017-01-02T02:14:07.928Z,0
2017-01-02T02:15:07.515Z,0
2017-01-02T02:16:07.841Z,0
2017-01-02T02:17:07.423Z,0
2017-01-02T02:18:07.751Z,0
2017-01-02T02:19:07.330Z,0
2017-01-02T02:20:07.708Z,0
2017-01-02T02:21:07.629Z,0
2017-01-02T02:22:07.588Z,0
2017-01-02T02:23:07.534Z,0
2017-01-02T02:24:07.110Z,0
2017-01-02T02:25:07.106Z,0
2017-01-02T02:26:07.031Z,0
2017-01-02T02:27:06.986Z,0
2017-01-02T02:28:07.321Z,0
2017-01-02T02:29:09.298Z,0
2017-01-02T02:30:07.248Z,0
2017-01-02T02:31:07.202Z,0
2017-01-02T02:32:07.151Z,0
2017-01-02T02:33:06.340Z,0
2017-01-02T02:34:05.907Z,0
2017-01-02T02:35:06.635Z,0
2017-01-02T02:36:06.973Z,0
2017-01-02T02:37:06.552Z,0
2017-01-02T02:38:06.890Z,0
2017-01-02T02:39:06.847Z,0
2017-01-02T02:40:06.044Z,0
2017-01-02T02:41:06.381Z,0
2017-01-02T02:42:05.951Z,0
2017-01-02T02:43:06.675Z,0
2017-01-02T02:44:06.644Z,0
2017-01-02T02:45:06.588Z,0
2017-01-02T02:46:06.188Z,0
2017-01-02T02:47:06.516Z,0
2017-01-02T02:48:06.454Z,0
2017-01-02T02:49:06.030Z,0
2017-01-02T02:50:05.987Z,0
2017-01-02T02:51:06.330Z,0
2017-01-02T02:52:05.902Z,0
2017-01-02T02:53:06.239Z,0
2017-01-02T02:54:06.202Z,0
2017-01-02T02:55:06.153Z,0
2017-01-02T02:56:06.107Z,0
2017-01-02T02:57:05.682Z,0
2017-01-02T02:58:05.645Z,0
2017-01-02T02:59:05.614Z,0
2017-01-02T03:00:05.551Z,0
2017-01-02T03:01:05.894Z,0
2017-01-02T03:02:05.851Z,0
2017-01-02T03:03:05.420Z,0
2017-01-02T03:04:05.381Z,0
2017-01-02T03:05:05.345Z,0
2017-01-02T03:06:05.293Z,0
2017-01-02T03:07:04.862Z,0
2017-01-02T03:08:05.593Z,0
2017-01-02T03:09:05.546Z,0
2017-01-02T03:10:05.121Z,0
2017-01-02T03:11:05.076Z,0
2017-01-02T03:12:05.417Z,0
2017-01-02T03:13:04.992Z,0
2017-01-02T03:14:04.949Z,0
2017-01-02T03:15:04.517Z,0
2017-01-02T03:16:04.863Z,0
2017-01-02T03:17:04.433Z,0
2017-01-02T03:18:04.002Z,0
2017-01-02T03:19:05.117Z,0
2017-01-02T03:20:05.071Z,0
2017-01-02T03:21:05.030Z,0
2017-01-02T03:22:04.771Z,0
2017-01-02T03:23:04.937Z,0
2017-01-02T03:24:04.897Z,0
2017-01-02T03:25:04.858Z,0
2017-01-02T03:26:04.425Z,0
2017-01-02T03:27:04.769Z,0
2017-01-02T03:28:04.334Z,0
2017-01-02T03:29:04.680Z,0
2017-01-02T03:30:04.257Z,0
2017-01-02T03:31:04.207Z,0
2017-01-02T03:32:04.551Z,0
2017-01-02T03:33:04.129Z,0
2017-01-02T03:34:04.078Z,0
2017-01-02T03:35:03.649Z,0
2017-01-02T03:36:04.000Z,0
2017-01-02T03:37:03.574Z,0
2017-01-02T03:38:03.916Z,0
2017-01-02T03:39:03.481Z,0
2017-01-02T03:40:04.205Z,0
2017-01-02T03:41:04.162Z,0
2017-01-02T03:42:04.122Z,0
2017-01-02T03:43:04.081Z,0
2017-01-02T03:44:03.645Z,0
2017-01-02T03:45:03.224Z,0
2017-01-02T03:46:03.945Z,0
2017-01-02T03:47:03.901Z,0
2017-01-02T03:48:03.855Z,0
2017-01-02T03:49:03.816Z,0
2017-01-02T03:50:03.767Z,0
2017-01-02T03:51:03.344Z,0
2017-01-02T03:52:03.297Z,0
2017-01-02T03:53:05.643Z,0
2017-01-02T03:54:02.859Z,0
2017-01-02T03:55:03.553Z,0
2017-01-02T03:56:02.747Z,0
2017-01-02T03:57:02.692Z,0
2017-01-02T03:58:03.443Z,0
2017-01-02T03:59:03.377Z,0
2017-01-02T04:00:02.958Z,0
2017-01-02T04:01:02.520Z,0
2017-01-02T04:02:03.251Z,0
2017-01-02T04:03:02.824Z,0
2017-01-02T04:04:03.171Z,0
2017-01-02T04:05:02.733Z,0
2017-01-02T04:06:02.694Z,0
2017-01-02T04:07:03.033Z,0
2017-01-02T04:08:02.986Z,0
2017-01-02T04:09:02.177Z,0
2017-01-02T04:10:02.906Z,0
2017-01-02T04:11:02.474Z,0
2017-01-02T04:12:02.815Z,0
2017-01-02T04:13:01.613Z,0
2017-01-02T04:14:02.731Z,0
2017-01-02T04:15:02.685Z,0
2017-01-02T04:16:02.261Z,0
2017-01-02T04:17:02.602Z,0
2017-01-02T04:18:02.554Z,0
2017-01-02T04:19:02.124Z,0
2017-01-02T04:20:02.086Z,0
2017-01-02T04:21:02.426Z,0
2017-01-02T04:22:02.379Z,0
2017-01-02T04:23:01.952Z,0
2017-01-02T04:24:02.293Z,0
2017-01-02T04:25:01.869Z,0
2017-01-02T04:26:01.817Z,0
2017-01-02T04:27:02.164Z,0
2017-01-02T04:28:01.729Z,0
2017-01-02T04:29:01.699Z,0
2017-01-02T04:30:02.032Z,0
2017-01-02T04:31:01.604Z,0
2017-01-02T04:32:01.559Z,0
2017-01-02T04:33:01.927Z,0
2017-01-02T04:34:01.473Z,0
2017-01-02T04:35:01.812Z,0
2017-01-02T04:36:01.775Z,0
2017-01-02T04:37:01.343Z,0
2017-01-02T04:38:01.690Z,0
2017-01-02T04:39:01.647Z,0
2017-01-02T04:40:01.608Z,0
2017-01-02T04:41:01.167Z,0
2017-01-02T04:42:01.125Z,0
2017-01-02T04:43:01.475Z,0
2017-01-02T04:44:01.045Z,0
2017-01-02T04:45:02.056Z,0
2017-01-02T04:46:01.341Z,0
2017-01-02T04:47:01.296Z,0
2017-01-02T04:48:01.251Z,0
2017-01-02T04:49:01.208Z,0
2017-01-02T04:50:00.783Z,0
2017-01-02T04:51:00.349Z,0
2017-01-02T04:52:01.074Z,0
2017-01-02T04:53:01.045Z,0
2017-01-02T04:54:00.606Z,0
2017-01-02T04:55:00.208Z,0
2017-01-02T04:55:59.750Z,0
2017-01-02T04:57:00.473Z,0
2017-01-02T04:58:00.435Z,0
2017-01-02T04:59:00.769Z,0
2017-01-02T05:00:00.344Z,0
2017-01-02T05:01:00.685Z,0
2017-01-02T05:02:00.643Z,0
2017-01-02T05:03:00.599Z,0
2017-01-02T05:04:00.553Z,0
2017-01-02T05:05:00.126Z,0
2017-01-02T05:05:59.707Z,0
2017-01-02T05:07:00.039Z,0
2017-01-02T05:08:00.001Z,0
2017-01-02T05:08:59.948Z,0
2017-01-02T05:09:59.520Z,0
2017-01-02T05:11:00.249Z,0
2017-01-02T05:12:02.825Z,0
2017-01-02T05:13:00.167Z,0
2017-01-02T05:14:00.124Z,0
2017-01-02T05:15:00.079Z,0
2017-01-02T05:16:00.031Z,0
2017-01-02T05:16:59.605Z,0
2017-01-02T05:17:59.562Z,0
2017-01-02T05:18:59.135Z,0
2017-01-02T05:19:59.477Z,0
2017-01-02T05:20:59.045Z,0
2017-01-02T05:21:59.385Z,0
2017-01-02T05:22:59.728Z,0
2017-01-02T05:23:59.688Z,0
2017-01-02T05:24:59.261Z,0
2017-01-02T05:25:59.223Z,0
2017-01-02T05:26:59.167Z,0
2017-01-02T05:27:59.519Z,0
2017-01-02T05:28:59.473Z,0
2017-01-02T05:29:59.426Z,0
2017-01-02T05:30:59.386Z,0
2017-01-02T05:31:59.338Z,0
2017-01-02T05:32:58.912Z,0
2017-01-02T05:33:59.252Z,0
2017-01-02T05:34:58.820Z,0
2017-01-02T05:35:58.801Z,0
2017-01-02T05:36:59.124Z,0
2017-01-02T05:37:58.698Z,0
2017-01-02T05:38:58.653Z,0
2017-01-02T05:39:58.998Z,0
2017-01-02T05:40:58.946Z,0
2017-01-02T05:41:58.540Z,0
2017-01-02T05:42:58.473Z,0
2017-01-02T05:43:58.817Z,0
2017-01-02T05:44:58.777Z,0
2017-01-02T05:45:58.343Z,0
2017-01-02T05:46:58.683Z,0
2017-01-02T05:47:58.640Z,0
2017-01-02T05:48:58.602Z,0
2017-01-02T05:49:57.397Z,0
2017-01-02T05:50:58.129Z,0
2017-01-02T05:51:58.080Z,0
2017-01-02T05:52:58.444Z,0
2017-01-02T05:53:58.384Z,0
2017-01-02T05:54:57.953Z,0
2017-01-02T05:55:58.292Z,0
2017-01-02T05:56:57.880Z,0
2017-01-02T05:57:58.209Z,0
2017-01-02T05:58:57.785Z,0
2017-01-02T05:59:58.129Z,0
2017-01-02T06:00:58.083Z,0
2017-01-02T06:01:58.036Z,0
2017-01-02T06:02:57.609Z,0
2017-01-02T06:03:57.569Z,0
2017-01-02T06:04:57.130Z,0
2017-01-02T06:05:57.505Z,0
2017-01-02T06:06:57.433Z,0
2017-01-02T06:07:57.787Z,0
2017-01-02T06:08:57.757Z,0
2017-01-02T06:09:57.300Z,0
2017-01-02T06:10:57.644Z,0
2017-01-02T06:11:56.836Z,0
2017-01-02T06:12:57.572Z,0
2017-01-02T06:13:57.512Z,0
2017-01-02T06:14:57.468Z,0
2017-01-02T06:15:57.429Z,0
2017-01-02T06:16:57.381Z,0
2017-01-02T06:17:57.340Z,0
2017-01-02T06:18:57.296Z,0
2017-01-02T06:19:56.864Z,0
2017-01-02T06:20:57.219Z,0
2017-01-02T06:21:56.396Z,0
2017-01-02T06:22:56.739Z,0
2017-01-02T06:23:59.273Z,0
2017-01-02T06:24:56.268Z,0
2017-01-02T06:25:56.604Z,0
2017-01-02T06:26:56.563Z,0
2017-01-02T06:27:56.530Z,0
2017-01-02T06:28:56.864Z,0
2017-01-02T06:29:56.817Z,0
2017-01-02T06:30:56.803Z,0
2017-01-02T06:31:56.732Z,0
2017-01-02T06:32:56.686Z,0
2017-01-02T06:33:56.671Z,0
2017-01-02T06:34:56.213Z,0
2017-01-02T06:35:56.556Z,0
2017-01-02T06:36:56.128Z,0
2017-01-02T06:37:56.473Z,0
2017-01-02T06:38:56.039Z,0
2017-01-02T06:39:56.390Z,4
2017-01-02T06:40:56.347Z,4
2017-01-02T06:41:55.916Z,0
2017-01-02T06:42:55.484Z,0
2017-01-02T06:43:56.209Z,4
2017-01-02T06:44:55.780Z,0
2017-01-02T06:45:56.123Z,4
2017-01-02T06:46:55.722Z,4
2017-01-02T06:47:56.034Z,4
2017-01-02T06:48:55.999Z,8
2017-01-02T06:49:55.185Z,8
2017-01-02T06:50:55.518Z,8
2017-01-02T06:51:55.898Z,12
2017-01-02T06:52:55.825Z,12
2017-01-02T06:53:55.777Z,12
2017-01-02T06:54:55.733Z,16
2017-01-02T06:55:55.305Z,20
2017-01-02T06:56:55.656Z,20
2017-01-02T06:57:54.831Z,28
2017-01-02T06:58:55.566Z,28
2017-01-02T06:59:55.519Z,32
2017-01-02T07:00:55.116Z,32
2017-01-02T07:01:55.060Z,40
2017-01-02T07:02:55.390Z,44
2017-01-02T07:03:55.351Z,48
2017-01-02T07:04:55.297Z,52
2017-01-02T07:05:55.255Z,56
2017-01-02T07:06:54.831Z,64
2017-01-02T07:07:55.175Z,72
2017-01-02T07:08:54.753Z,80
2017-01-02T07:09:55.082Z,88
2017-01-02T07:10:54.654Z,96
2017-01-02T07:11:54.993Z,100
2017-01-02T07:12:54.957Z,108
2017-01-02T07:13:54.524Z,120
2017-01-02T07:14:54.873Z,136
2017-01-02T07:15:54.445Z,140
2017-01-02T07:16:55.662Z,156
2017-01-02T07:17:54.352Z,164
2017-01-02T07:18:54.302Z,172
2017-01-02T07:19:54.288Z,192
2017-01-02T07:20:54.604Z,224
2017-01-02T07:21:54.559Z,224
2017-01-02T07:22:54.528Z,232
2017-01-02T07:23:54.092Z,240
2017-01-02T07:24:53.664Z,268
2017-01-02T07:25:54.001Z,264
2017-01-02T07:26:53.958Z,268
2017-01-02T07:27:54.301Z,284
2017-01-02T07:28:53.879Z,304
2017-01-02T07:29:54.212Z,292
2017-01-02T07:30:54.173Z,308
2017-01-02T07:31:53.744Z,316
2017-01-02T07:32:54.086Z,324
2017-01-02T07:33:54.041Z,340
2017-01-02T07:34:53.612Z,336
2017-01-02T07:35:53.957Z,348
2017-01-02T07:36:53.923Z,364
2017-01-02T07:37:53.866Z,384
2017-01-02T07:38:53.827Z,396
2017-01-02T07:39:53.787Z,396
2017-01-02T07:40:53.744Z,400
2017-01-02T07:41:53.699Z,404
2017-01-02T07:42:53.672Z,408
2017-01-02T07:43:52.839Z,424
2017-01-02T07:44:53.564Z,416
2017-01-02T07:45:53.526Z,416
2017-01-02T07:46:52.707Z,436
2017-01-02T07:47:53.460Z,452
2017-01-02T07:48:53.012Z,436
2017-01-02T07:50:07.481Z,464
2017-01-02T07:50:53.308Z,472
2017-01-02T07:51:53.268Z,480
2017-01-02T07:52:52.831Z,492
2017-01-02T07:53:53.175Z,508
2017-01-02T07:54:52.749Z,532
2017-01-02T07:55:52.705Z,560
2017-01-02T07:56:52.275Z,596
2017-01-02T07:57:52.997Z,644
2017-01-02T07:58:52.955Z,664
2017-01-02T07:59:52.527Z,660
2017-01-02T08:00:52.878Z,668
2017-01-02T08:01:52.455Z,616
2017-01-02T08:02:52.403Z,640
2017-01-02T08:03:52.742Z,688
2017-01-02T08:04:52.708Z,724
2017-01-02T08:05:52.269Z,760
2017-01-02T08:06:52.608Z,820
2017-01-02T08:07:52.573Z,904
2017-01-02T08:08:51.752Z,952
2017-01-02T08:09:52.484Z,992
2017-01-02T08:10:51.671Z,1052
2017-01-02T08:11:52.406Z,1024
2017-01-02T08:12:51.967Z,976
2017-01-02T08:13:51.945Z,968
2017-01-02T08:14:52.267Z,1004
2017-01-02T08:15:52.221Z,1088
2017-01-02T08:16:51.795Z,1064
2017-01-02T08:17:51.366Z,1112
2017-01-02T08:18:52.096Z,1164
2017-01-02T08:19:51.661Z,1192
2017-01-02T08:20:51.653Z,1220
2017-01-02T08:21:51.963Z,1244
2017-01-02T08:22:51.922Z,1328
2017-01-02T08:23:51.104Z,1324
2017-01-02T08:24:51.099Z,1324
2017-01-02T08:25:51.405Z,1364
2017-01-02T08:26:51.751Z,1500
2017-01-02T08:27:51.707Z,1524
2017-01-02T08:28:51.694Z,1568
2017-01-02T08:29:51.232Z,1644
2017-01-02T08:30:51.572Z,1584
2017-01-02T08:31:50.765Z,1612
2017-01-02T08:32:51.104Z,1816
2017-01-02T08:33:51.446Z,1824
2017-01-02T08:34:51.422Z,1848
2017-01-02T08:35:50.972Z,1900
2017-01-02T08:36:51.316Z,1880
2017-01-02T08:37:50.509Z,1744
2017-01-02T08:38:50.848Z,1804
2017-01-02T08:39:51.190Z,1716
2017-01-02T08:40:50.375Z,1632
2017-01-02T08:41:51.108Z,1664
2017-01-02T08:42:50.671Z,1740
2017-01-02T08:43:50.634Z,1652
2017-01-02T08:44:50.979Z,1764
2017-01-02T08:45:50.931Z,1824
2017-01-02T08:46:50.500Z,1900
2017-01-02T08:47:50.842Z,2028
2017-01-02T08:48:50.802Z,2044
2017-01-02T08:49:50.752Z,2012
2017-01-02T08:50:49.943Z,1936
2017-01-02T08:51:50.680Z,2056
2017-01-02T08:52:50.630Z,1980
2017-01-02T08:53:50.257Z,1892
2017-01-02T08:54:50.193Z,1972
2017-01-02T08:55:50.532Z,2084
2017-01-02T08:56:50.462Z,2136
2017-01-02T08:57:50.430Z,2188
2017-01-02T08:58:49.624Z,2220
2017-01-02T08:59:49.954Z,2144
2017-01-02T09:00:49.903Z,2220
2017-01-02T09:01:50.254Z,2248
2017-01-02T09:02:49.432Z,2324
2017-01-02T09:03:49.821Z,2412
2017-01-02T09:04:49.742Z,2428
2017-01-02T09:05:49.692Z,2240
2017-01-02T09:06:50.026Z,2112
2017-01-02T09:07:49.992Z,2240
2017-01-02T09:08:49.562Z,2228
2017-01-02T09:09:49.126Z,2188
2017-01-02T09:10:49.477Z,2256
2017-01-02T09:11:49.075Z,2368
2017-01-02T09:12:49.011Z,2452
2017-01-02T09:13:49.740Z,2456
2017-01-02T09:14:49.684Z,2332
2017-01-02T09:15:49.647Z,2232
2017-01-02T09:16:49.599Z,2408
2017-01-02T09:17:49.563Z,2476
2017-01-02T09:18:48.745Z,2580
2017-01-02T09:19:49.083Z,2688
2017-01-02T09:20:49.045Z,2860
2017-01-02T09:21:48.620Z,2656
2017-01-02T09:22:48.962Z,2528
2017-01-02T09:23:49.296Z,2564
2017-01-02T09:24:49.254Z,2732
2017-01-02T09:25:49.213Z,2636
2017-01-02T09:26:49.171Z,2552
2017-01-02T09:27:49.131Z,2860
2017-01-02T09:28:48.700Z,3008
2017-01-02T09:29:49.061Z,2928
2017-01-02T09:30:48.608Z,2796
2017-01-02T09:31:48.585Z,2860
2017-01-02T09:32:48.144Z,2520
2017-01-02T09:33:48.875Z,2028
2017-01-02T09:34:48.848Z,1880
2017-01-02T09:35:48.784Z,1840
2017-01-02T09:36:48.742Z,1760
2017-01-02T09:37:48.317Z,1880
2017-01-02T09:38:48.650Z,1852
2017-01-02T09:39:48.611Z,1968
2017-01-02T09:40:48.572Z,2184
2017-01-02T09:41:48.150Z,2216
2017-01-02T09:42:47.758Z,2404
2017-01-02T09:43:48.500Z,2512
2017-01-02T09:44:48.394Z,2528
2017-01-02T09:45:48.351Z,2620
2017-01-02T09:46:47.952Z,2748
2017-01-02T09:47:47.952Z,2752
2017-01-02T09:48:47.838Z,3024
2017-01-02T09:49:47.799Z,3356
2017-01-02T09:50:47.369Z,3772
2017-01-02T09:51:47.718Z,3612
2017-01-02T09:52:47.700Z,3324
2017-01-02T09:53:47.242Z,3148
2017-01-02T09:54:47.589Z,3224
2017-01-02T09:55:47.544Z,3424
2017-01-02T09:56:47.495Z,3328
2017-01-02T09:57:47.465Z,3144
2017-01-02T09:58:47.797Z,2948
2017-01-02T09:59:47.361Z,2428
2017-01-02T10:00:47.713Z,2620
2017-01-02T10:01:47.276Z,2920
2017-01-02T10:02:47.621Z,3588
2017-01-02T10:03:47.190Z,3716
2017-01-02T10:04:47.536Z,3600
2017-01-02T10:05:47.520Z,3452
2017-01-02T10:06:47.456Z,3600
2017-01-02T10:07:47.411Z,3460
2017-01-02T10:08:46.596Z,3360
2017-01-02T10:09:47.332Z,3408
2017-01-02T10:10:46.507Z,3388
2017-01-02T10:11:46.861Z,3132
2017-01-02T10:12:46.807Z,2820
2017-01-02T10:13:46.762Z,3048
2017-01-02T10:14:46.728Z,3084
2017-01-02T10:15:46.676Z,3372
2017-01-02T10:16:47.028Z,3604
2017-01-02T10:17:46.606Z,3672
2017-01-02T10:18:46.554Z,3880
2017-01-02T10:19:46.904Z,3968
2017-01-02T10:20:46.856Z,3924
2017-01-02T10:21:46.420Z,4056
2017-01-02T10:22:46.432Z,4244
2017-01-02T10:23:46.338Z,4416
2017-01-02T10:24:46.717Z,4640
2017-01-02T10:25:45.896Z,4448
2017-01-02T10:26:46.209Z,4776
2017-01-02T10:27:46.166Z,4580
2017-01-02T10:28:46.542Z,4428
2017-01-02T10:29:46.504Z,4592
2017-01-02T10:30:45.658Z,4680
2017-01-02T10:31:45.994Z,4844
2017-01-02T10:32:45.560Z,4720
2017-01-02T10:33:45.909Z,4632
2017-01-02T10:34:45.868Z,4468
2017-01-02T10:35:45.821Z,4564
2017-01-02T10:36:45.394Z,4628
2017-01-02T10:37:46.121Z,4188
2017-01-02T10:38:46.084Z,4212
2017-01-02T10:39:45.650Z,4072
2017-01-02T10:40:45.607Z,3984
2017-01-02T10:41:45.178Z,4040
2017-01-02T10:42:45.521Z,3892
2017-01-02T10:43:45.865Z,3924
2017-01-02T10:44:45.443Z,3864
2017-01-02T10:45:45.782Z,3496
2017-01-02T10:46:44.972Z,3340
2017-01-02T10:47:45.342Z,3396
2017-01-02T10:48:45.652Z,3460
2017-01-02T10:49:45.223Z,3720
2017-01-02T10:50:45.178Z,3816
2017-01-02T10:51:45.137Z,4048
2017-01-02T10:52:45.497Z,4016
2017-01-02T10:53:45.057Z,4292
2017-01-02T10:54:45.398Z,4060
2017-01-02T10:55:44.967Z,3972
2017-01-02T10:56:44.570Z,4256
2017-01-02T10:57:44.510Z,4264
2017-01-02T10:58:45.231Z,3748
2017-01-02T10:59:45.226Z,3604
2017-01-02T11:00:44.771Z,3796
2017-01-02T11:01:45.100Z,3640
2017-01-02T11:02:45.061Z,3608
2017-01-02T11:03:44.633Z,3212
2017-01-02T11:04:44.974Z,3660
2017-01-02T11:05:44.548Z,3672
2017-01-02T11:06:44.889Z,3720
2017-01-02T11:07:44.850Z,4028
2017-01-02T11:08:44.837Z,4292
2017-01-02T11:09:43.611Z,5336
2017-01-02T11:10:43.950Z,5780
2017-01-02T11:11:44.677Z,5572
2017-01-02T11:12:44.717Z,5524
2017-01-02T11:13:44.598Z,5740
2017-01-02T11:14:44.588Z,6876
2017-01-02T11:15:44.538Z,6772
2017-01-02T11:16:44.483Z,6164
2017-01-02T11:17:44.040Z,6024
2017-01-02T11:18:44.387Z,7060
2017-01-02T11:19:44.345Z,6568
2017-01-02T11:20:43.916Z,6532
2017-01-02T11:21:43.097Z,5884
2017-01-02T11:22:44.230Z,6392
2017-01-02T11:23:44.180Z,6552
2017-01-02T11:24:44.141Z,6220
2017-01-02T11:25:43.711Z,6624
2017-01-02T11:26:44.052Z,6860
2017-01-02T11:27:44.012Z,6572
2017-01-02T11:28:43.965Z,6604
2017-01-02T11:29:43.952Z,8628
2017-01-02T11:30:43.891Z,7276
2017-01-02T11:31:43.843Z,5384
2017-01-02T11:32:43.029Z,5848
2017-01-02T11:33:43.768Z,6976
2017-01-02T11:34:43.715Z,6612
2017-01-02T11:35:42.909Z,8416
2017-01-02T11:36:43.638Z,7896
2017-01-02T11:37:43.208Z,5940
2017-01-02T11:38:43.170Z,5160
2017-01-02T11:39:43.134Z,4936
2017-01-02T11:40:43.086Z,5372
2017-01-02T11:41:43.045Z,5464
2017-01-02T11:42:43.395Z,5220
2017-01-02T11:43:42.966Z,4720
2017-01-02T11:44:42.924Z,5192
2017-01-02T11:45:42.496Z,5320
2017-01-02T11:46:43.234Z,5852
2017-01-02T11:47:42.794Z,4876
2017-01-02T11:48:43.143Z,5840
2017-01-02T11:49:43.096Z,5100
2017-01-02T11:50:43.069Z,4636
2017-01-02T11:51:43.018Z,5716
2017-01-02T11:52:42.981Z,6156
2017-01-02T11:53:42.551Z,5988
2017-01-02T11:54:41.738Z,5228
2017-01-02T11:55:42.847Z,5328
2017-01-02T11:56:42.433Z,4936
2017-01-02T11:57:42.381Z,5372
2017-01-02T11:58:42.729Z,6312
2017-01-02T11:59:42.685Z,6220
2017-01-02T12:00:42.262Z,5908
2017-01-02T12:01:42.221Z,7228
2017-01-02T12:02:42.559Z,7832
2017-01-02T12:03:42.546Z,7556
2017-01-02T12:04:42.101Z,6776
2017-01-02T12:05:42.438Z,8636
2017-01-02T12:06:42.400Z,9284
2017-01-02T12:07:41.979Z,8664
2017-01-02T12:08:42.319Z,9128
2017-01-02T12:09:41.886Z,10348
2017-01-02T12:10:41.883Z,10180
2017-01-02T12:11:41.813Z,8388
2017-01-02T12:12:41.770Z,8588
2017-01-02T12:13:42.107Z,10116
2017-01-02T12:14:42.073Z,12004
2017-01-02T12:15:41.651Z,12532
2017-01-02T12:16:41.604Z,12944
2017-01-02T12:17:41.945Z,13080
2017-01-02T12:18:41.524Z,12952
2017-01-02T12:19:41.865Z,13012
2017-01-02T12:20:41.442Z,11360
2017-01-02T12:21:41.402Z,10112
2017-01-02T12:22:41.750Z,12144
2017-01-02T12:23:41.330Z,11296
2017-01-02T12:24:41.280Z,12228
2017-01-02T12:25:41.242Z,12740
2017-01-02T12:26:40.819Z,10968
2017-01-02T12:27:41.547Z,10712
2017-01-02T12:28:41.124Z,10708
2017-01-02T12:29:41.094Z,10720
2017-01-02T12:30:41.040Z,10724
2017-01-02T12:31:40.610Z,10720
2017-01-02T12:32:41.347Z,10200
2017-01-02T12:33:41.307Z,7916
2017-01-02T12:34:40.884Z,6168
2017-01-02T12:35:41.225Z,5716
2017-01-02T12:36:41.185Z,4816
2017-01-02T12:37:41.149Z,4528
2017-01-02T12:38:40.337Z,4804
2017-01-02T12:39:41.070Z,4788
2017-01-02T12:40:40.257Z,5152
2017-01-02T12:41:40.606Z,5696
2017-01-02T12:42:40.953Z,6232
2017-01-02T12:43:40.516Z,6880
2017-01-02T12:44:40.873Z,5652
2017-01-02T12:45:40.442Z,5136
2017-01-02T12:46:40.408Z,5196
2017-01-02T12:47:40.747Z,5980
2017-01-02T12:48:40.720Z,5996
2017-01-02T12:49:40.663Z,5768
2017-01-02T12:50:40.254Z,6048
2017-01-02T12:51:40.204Z,6316
2017-01-02T12:52:40.548Z,6488
2017-01-02T12:53:39.758Z,6796
2017-01-02T12:54:40.473Z,7064
2017-01-02T12:55:40.430Z,7448
2017-01-02T12:56:40.390Z,7256
2017-01-02T12:57:40.339Z,7564
2017-01-02T12:58:39.916Z,7432
2017-01-02T12:59:39.875Z,7372
2017-01-02T13:00:40.243Z,7040
2017-01-02T13:01:40.187Z,6992
2017-01-02T13:02:39.753Z,6696
2017-01-02T13:03:40.105Z,6296
2017-01-02T13:04:39.675Z,6032
2017-01-02T13:05:39.280Z,5836
2017-01-02T13:06:39.622Z,5576
2017-01-02T13:07:39.561Z,5308
2017-01-02T13:08:39.518Z,5344
2017-01-02T13:09:39.476Z,5320
2017-01-02T13:10:39.841Z,5252
2017-01-02T13:11:39.779Z,4956
2017-01-02T13:12:39.352Z,4584
2017-01-02T13:13:39.314Z,4364
2017-01-02T13:14:39.655Z,4396
2017-01-02T13:15:39.616Z,4248
2017-01-02T13:16:38.804Z,4096
2017-01-02T13:17:39.534Z,3856
2017-01-02T13:18:39.107Z,3892
2017-01-02T13:19:39.452Z,4260
2017-01-02T13:20:39.029Z,4712
2017-01-02T13:21:39.367Z,4644
2017-01-02T13:22:38.941Z,4648
2017-01-02T13:23:39.282Z,5064
2017-01-02T13:24:38.865Z,5100
2017-01-02T13:25:39.211Z,4756
2017-01-02T13:26:39.175Z,4544
2017-01-02T13:27:39.130Z,4472
2017-01-02T13:28:38.699Z,4308
2017-01-02T13:29:38.657Z,4036
2017-01-02T13:30:38.618Z,3876
2017-01-02T13:31:38.974Z,3980
2017-01-02T13:32:38.158Z,4132
2017-01-02T13:33:38.499Z,4144
2017-01-02T13:34:38.850Z,3996
2017-01-02T13:35:38.418Z,3916
2017-01-02T13:36:38.769Z,4108
2017-01-02T13:37:38.722Z,4296
2017-01-02T13:38:38.293Z,4208
2017-01-02T13:39:38.253Z,3976
2017-01-02T13:40:38.599Z,3780
2017-01-02T13:41:38.552Z,3728
2017-01-02T13:42:37.742Z,3584
2017-01-02T13:43:38.093Z,3408
2017-01-02T13:44:38.047Z,3244
2017-01-02T13:45:38.010Z,2996
2017-01-02T13:46:38.355Z,2856
2017-01-02T13:47:37.538Z,2756
2017-01-02T13:48:37.911Z,2580
2017-01-02T13:49:38.231Z,2584
2017-01-02T13:50:37.830Z,2572
2017-01-02T13:51:37.766Z,2608
2017-01-02T13:52:37.756Z,2752
2017-01-02T13:53:37.681Z,2856
2017-01-02T13:54:37.639Z,2812
2017-01-02T13:55:37.603Z,2796
2017-01-02T13:56:37.168Z,2716
2017-01-02T13:57:37.907Z,2472
2017-01-02T13:58:37.858Z,2268
2017-01-02T13:59:37.045Z,2216
2017-01-02T14:00:37.778Z,2068
2017-01-02T14:01:37.734Z,1904